Time;durP1;ratioP1;P1;durP2;ratioP2;P2;SDS_P1;SDS_P2;PMS_P1;PMS_P2;Temp;Humidity;BMP_temperature;BMP_pressure;BME280_temperature;BME280_humidity;BME280_pressure;Samples;Min_cycle;Max_cycle;Signal;HPM_P1;HPM_P2
2023/07/29 00:01:21;;;;;;;8.80;4.90;;;;;;;16.83;100.00;97641.69;5052014;28;20690;-84
2023/07/29 00:03:48;;;;;;;7.70;5.17;;;;;;;16.88;100.00;97642.06;5052677;28;20228;-81
2023/07/29 00:06:14;;;;;;;7.70;5.60;;;;;;;16.93;100.00;97630.91;5052525;28;20215;-81
2023/07/29 00:08:41;;;;;;;6.27;4.97;;;;;;;16.98;100.00;97632.13;5052834;28;20683;-81
2023/07/29 00:11:07;;;;;;;7.83;5.47;;;;;;;16.98;100.00;97634.81;5051932;28;20235;-84
2023/07/29 00:13:35;;;;;;;6.30;5.07;;;;;;;17.02;100.00;97629.97;5052090;28;20242;-84
2023/07/29 00:16:02;;;;;;;6.40;5.33;;;;;;;17.02;100.00;97630.81;5052000;28;20430;-82
2023/07/29 00:18:28;;;;;;;6.67;5.20;;;;;;;17.08;100.00;97626.69;5052290;28;20678;-82
2023/07/29 00:20:55;;;;;;;7.47;5.27;;;;;;;17.05;100.00;97609.16;5051515;28;20576;-83
2023/07/29 00:23:22;;;;;;;7.13;4.93;;;;;;;17.08;100.00;97613.34;5052416;28;20232;-82
2023/07/29 00:25:48;;;;;;;6.77;4.87;;;;;;;17.06;100.00;97610.81;5052357;28;20207;-82
2023/07/29 00:28:15;;;;;;;9.20;5.20;;;;;;;17.07;100.00;97614.34;5051970;28;20216;-82
2023/07/29 00:30:45;;;;;;;7.40;5.30;;;;;;;17.08;100.00;97611.47;5051479;28;20214;-82
2023/07/29 00:33:12;;;;;;;6.60;5.77;;;;;;;17.10;100.00;97616.66;5051831;28;20242;-83
2023/07/29 00:35:38;;;;;;;7.17;5.20;;;;;;;17.13;100.00;97606.50;5051906;28;20211;-83
2023/07/29 00:38:05;;;;;;;6.43;5.30;;;;;;;17.15;100.00;97614.38;5052105;28;20597;-82
2023/07/29 00:40:35;;;;;;;6.90;5.33;;;;;;;17.16;100.00;97622.22;5051232;28;20216;-82
2023/07/29 00:43:02;;;;;;;7.90;5.90;;;;;;;17.17;100.00;97623.91;5051693;28;20674;-83
2023/07/29 00:45:30;;;;;;;7.93;5.47;;;;;;;17.18;100.00;97620.22;5051837;28;20671;-83
2023/07/29 00:47:59;;;;;;;7.13;4.83;;;;;;;17.23;100.00;97612.56;5051663;28;20203;-83
2023/07/29 00:50:27;;;;;;;6.90;5.10;;;;;;;17.19;100.00;97611.22;5051130;28;20210;-82
2023/07/29 00:52:54;;;;;;;5.73;4.20;;;;;;;17.19;100.00;97602.38;5051741;28;20236;-82
2023/07/29 00:55:21;;;;;;;6.60;4.83;;;;;;;17.20;100.00;97602.19;5051978;28;20294;-83
2023/07/29 00:57:51;;;;;;;7.87;5.03;;;;;;;17.24;100.00;97606.22;5051488;28;20231;-82
2023/07/29 01:00:18;;;;;;;4.93;4.13;;;;;;;17.28;100.00;97610.28;5050021;28;20389;-82
2023/07/29 01:02:45;;;;;;;6.27;4.60;;;;;;;17.30;100.00;97605.59;5051433;28;20448;-83
2023/07/29 01:05:15;;;;;;;7.57;4.97;;;;;;;17.28;100.00;97607.59;5051718;28;20246;-83
2023/07/29 01:07:50;;;;;;;6.97;4.97;;;;;;;17.27;100.00;97607.75;5051611;28;20212;-83
2023/07/29 01:10:26;;;;;;;5.63;4.70;;;;;;;17.24;100.00;97598.22;5050538;28;20203;-83
2023/07/29 01:12:59;;;;;;;6.17;4.50;;;;;;;17.22;100.00;97589.53;5051032;28;20235;-83
2023/07/29 01:15:32;;;;;;;6.53;4.73;;;;;;;17.21;100.00;97582.53;5051527;28;20219;-82
2023/07/29 01:18:05;;;;;;;7.37;4.90;;;;;;;17.17;100.00;97581.16;5051279;28;20574;-83
2023/07/29 01:20:35;;;;;;;4.80;4.30;;;;;;;17.16;100.00;97587.50;5050475;28;20214;-82
2023/07/29 01:23:01;;;;;;;6.23;4.83;;;;;;;17.16;100.00;97587.50;5051078;28;20232;-82
2023/07/29 01:25:29;;;;;;;4.80;4.00;;;;;;;17.17;100.00;97580.31;5050704;28;20207;-82
2023/07/29 01:27:57;;;;;;;6.43;4.60;;;;;;;17.15;100.00;97588.50;5050662;28;20208;-82
2023/07/29 01:30:29;;;;;;;5.87;4.60;;;;;;;17.13;100.00;97585.16;5050081;28;20650;-82
2023/07/29 01:33:03;;;;;;;5.90;4.63;;;;;;;17.13;100.00;97585.16;5051137;28;20334;-82
2023/07/29 01:35:34;;;;;;;7.13;4.97;;;;;;;17.15;100.00;97583.16;5051002;28;20248;-82
2023/07/29 01:38:06;;;;;;;5.60;4.53;;;;;;;17.16;100.00;97579.50;5050867;28;20277;-82
2023/07/29 01:40:34;;;;;;;5.37;4.10;;;;;;;17.13;100.00;97569.13;5050700;28;20592;-83
2023/07/29 01:43:01;;;;;;;4.87;3.83;;;;;;;17.16;100.00;97571.50;5050973;28;20251;-82
2023/07/29 01:45:27;;;;;;;4.67;4.10;;;;;;;17.13;100.00;97574.47;5051412;28;20391;-83
2023/07/29 01:47:54;;;;;;;6.63;3.57;;;;;;;17.11;100.00;97581.81;5050813;28;20677;-82
2023/07/29 01:50:20;;;;;;;4.23;3.60;;;;;;;17.05;100.00;97566.44;5050300;28;20218;-82
2023/07/29 01:52:47;;;;;;;4.37;3.67;;;;;;;17.06;100.00;97578.78;5050811;28;20232;-83
2023/07/29 01:55:13;;;;;;;5.90;3.40;;;;;;;17.06;100.00;97570.75;5051160;28;20220;-83
2023/07/29 01:57:42;;;;;;;5.83;3.73;;;;;;;17.11;100.00;97571.13;5050733;28;20242;-83
2023/07/29 02:00:09;;;;;;;4.50;3.70;;;;;;;17.16;100.00;97562.63;5050169;28;20211;-83
2023/07/29 02:02:36;;;;;;;6.27;3.67;;;;;;;17.17;100.00;97565.16;5050856;28;20235;-83
2023/07/29 02:05:02;;;;;;;4.53;3.83;;;;;;;17.17;100.00;97559.81;5050736;28;20208;-82
2023/07/29 02:07:29;;;;;;;4.30;3.90;;;;;;;17.15;100.00;97556.47;5050995;28;20223;-83
2023/07/29 02:09:55;;;;;;;5.33;4.47;;;;;;;17.14;100.00;97549.44;5049956;28;20679;-83
2023/07/29 02:12:22;;;;;;;4.80;4.27;;;;;;;17.16;100.00;97551.94;5050602;28;20230;-82
2023/07/29 02:14:50;;;;;;;5.27;3.50;;;;;;;17.15;100.00;97550.28;5050698;28;20698;-82
2023/07/29 02:17:16;;;;;;;6.17;4.20;;;;;;;17.16;100.00;97549.28;5050651;28;20228;-82
2023/07/29 02:19:43;;;;;;;4.10;3.70;;;;;;;17.16;100.00;97547.47;5049981;28;20204;-82
2023/07/29 02:22:11;;;;;;;5.03;4.23;;;;;;;17.18;100.00;97548.13;5050675;28;20212;-82
2023/07/29 02:24:38;;;;;;;4.27;3.87;;;;;;;17.20;100.00;97548.78;5050717;28;20576;-82
2023/07/29 02:27:04;;;;;;;4.33;3.37;;;;;;;17.18;100.00;97545.44;5050623;28;20208;-82
2023/07/29 02:29:32;;;;;;;4.67;3.73;;;;;;;17.15;100.00;97542.25;5049791;28;20216;-82
2023/07/29 02:32:00;;;;;;;4.30;3.40;;;;;;;17.11;100.00;97539.09;5049486;28;20204;-82
2023/07/29 02:34:27;;;;;;;4.53;3.40;;;;;;;17.04;100.00;97548.72;5050716;28;20215;-82
2023/07/29 02:36:53;;;;;;;4.50;3.90;;;;;;;17.03;100.00;97556.91;5050713;28;20231;-82
2023/07/29 02:39:20;;;;;;;5.53;3.50;;;;;;;17.00;100.00;97552.72;5053681;28;20204;-82
2023/07/29 02:41:46;;;;;;;3.90;3.50;;;;;;;17.03;100.00;97549.75;5054086;28;20562;-82
2023/07/29 02:44:13;;;;;;;5.23;4.00;;;;;;;17.02;100.00;97553.38;5054430;28;20235;-80
2023/07/29 02:46:39;;;;;;;4.60;3.80;;;;;;;17.02;100.00;97553.38;5054001;28;20212;-83
2023/07/29 02:49:07;;;;;;;4.87;3.53;;;;;;;17.01;100.00;97553.56;5053786;28;20698;-83
2023/07/29 02:51:34;;;;;;;6.07;3.67;;;;;;;17.01;100.00;97545.56;5053857;28;20214;-83
2023/07/29 02:54:00;;;;;;;5.50;4.07;;;;;;;17.02;100.00;97544.56;5053727;28;20235;-83
2023/07/29 02:56:27;;;;;;;5.53;3.50;;;;;;;17.03;100.00;97541.72;5053834;28;20200;-83
2023/07/29 02:58:53;;;;;;;5.23;3.30;;;;;;;17.02;100.00;97542.69;5053628;28;20228;-83
2023/07/29 03:01:20;;;;;;;3.70;3.33;;;;;;;16.99;100.00;97537.69;5052997;28;20208;-83
2023/07/29 03:03:46;;;;;;;5.17;3.50;;;;;;;16.98;100.00;97541.38;5053667;28;20711;-83
2023/07/29 03:06:15;;;;;;;4.03;3.60;;;;;;;16.96;100.00;97537.19;5053848;28;20219;-83
2023/07/29 03:08:42;;;;;;;3.80;3.27;;;;;;;16.98;100.00;97530.69;5053870;28;20265;-83
2023/07/29 03:11:10;;;;;;;6.00;3.73;;;;;;;16.98;100.00;97528.00;5053192;28;20294;-83
2023/07/29 03:13:37;;;;;;;4.07;3.67;;;;;;;16.99;100.00;97523.50;5053400;28;20620;-83
2023/07/29 03:16:10;;;;;;;3.70;3.13;;;;;;;16.94;100.00;97520.50;5053853;28;20372;-82
2023/07/29 03:18:37;;;;;;;3.73;3.27;;;;;;;16.86;100.00;97523.94;5053619;28;20243;-83
2023/07/29 03:21:04;;;;;;;3.63;3.20;;;;;;;16.79;100.00;97522.94;5052576;28;20215;-82
2023/07/29 03:23:33;;;;;;;3.60;2.93;;;;;;;16.78;100.00;97517.72;5053358;28;20239;-83
2023/07/29 03:26:01;;;;;;;3.40;3.10;;;;;;;16.78;100.00;97521.25;5053480;28;20222;-83
2023/07/29 03:28:29;;;;;;;3.70;3.40;;;;;;;16.77;100.00;97518.72;5053227;28;20301;-83
2023/07/29 03:30:56;;;;;;;5.60;3.63;;;;;;;16.77;100.00;97516.88;5052748;28;20216;-83
2023/07/29 03:33:23;;;;;;;3.90;3.20;;;;;;;16.79;100.00;97517.59;5053060;28;20242;-83
2023/07/29 03:35:50;;;;;;;4.80;3.73;;;;;;;16.87;100.00;97509.59;5053210;28;20207;-83
2023/07/29 03:38:16;;;;;;;4.20;3.60;;;;;;;16.93;100.00;97522.31;5053061;28;20236;-83
2023/07/29 03:40:45;;;;;;;4.47;3.87;;;;;;;16.97;100.00;97520.16;5052179;28;20211;-83
2023/07/29 03:43:11;;;;;;;4.73;4.13;;;;;;;16.99;100.00;97519.00;5052850;28;20240;-83
2023/07/29 03:45:39;;;;;;;5.53;3.70;;;;;;;16.99;100.00;97521.69;5053029;28;20219;-83
2023/07/29 03:48:06;;;;;;;4.50;4.00;;;;;;;17.01;100.00;97511.66;5052919;28;20203;-83
2023/07/29 03:50:34;;;;;;;4.27;3.80;;;;;;;17.06;100.00;97514.69;5051373;28;20211;-83
2023/07/29 03:53:01;;;;;;;5.37;3.90;;;;;;;17.05;100.00;97510.34;5052672;28;20649;-83
2023/07/29 03:55:29;;;;;;;4.47;3.77;;;;;;;17.06;100.00;97506.69;5052745;28;20219;-83
2023/07/29 03:57:57;;;;;;;4.40;3.67;;;;;;;17.07;100.00;97511.03;5052770;28;20239;-83
2023/07/29 04:00:23;;;;;;;5.33;4.10;;;;;;;17.10;100.00;97516.06;5052265;28;20506;-83
2023/07/29 04:02:50;;;;;;;4.90;4.30;;;;;;;17.13;100.00;97521.06;5052816;28;20227;-83
2023/07/29 04:05:17;;;;;;;4.83;4.33;;;;;;;17.17;100.00;97527.75;5052619;28;20626;-83
2023/07/29 04:07:44;;;;;;;4.17;3.67;;;;;;;17.12;100.00;97524.72;5052552;28;20208;-83
2023/07/29 04:10:11;;;;;;;5.60;3.07;;;;;;;17.14;100.00;97520.06;5052011;28;20207;-82
2023/07/29 04:12:38;;;;;;;4.33;2.97;;;;;;;17.08;100.00;97512.69;5052649;28;20298;-82
2023/07/29 04:15:07;;;;;;;5.33;3.40;;;;;;;17.03;100.00;97509.69;5052674;28;20219;-83
2023/07/29 04:17:33;;;;;;;4.40;3.20;;;;;;;17.03;100.00;97515.03;5052305;28;20729;-82
2023/07/29 04:20:00;;;;;;;3.67;3.03;;;;;;;16.99;100.00;97512.81;5051772;28;20210;-82
2023/07/29 04:22:26;;;;;;;4.07;3.27;;;;;;;17.00;100.00;97511.84;5052100;28;20334;-82
2023/07/29 04:24:53;;;;;;;8.30;3.77;;;;;;;16.98;100.00;97509.31;5052518;28;20235;-83
2023/07/29 04:27:20;;;;;;;4.90;3.77;;;;;;;17.00;100.00;97507.31;5052469;28;20212;-83
2023/07/29 04:29:46;;;;;;;6.03;3.93;;;;;;;16.99;100.00;97511.00;5051570;28;20212;-82
2023/07/29 04:32:14;;;;;;;4.30;3.87;;;;;;;17.00;100.00;97515.34;5052130;28;20227;-82
2023/07/29 04:34:40;;;;;;;5.27;4.20;;;;;;;17.02;100.00;97531.19;5052055;28;20219;-83
2023/07/29 04:37:07;;;;;;;4.57;4.03;;;;;;;17.00;100.00;97541.22;5052034;28;20223;-82
2023/07/29 04:39:33;;;;;;;5.83;4.30;;;;;;;16.98;100.00;97528.00;5051187;28;20238;-83
2023/07/29 04:42:00;;;;;;;4.00;3.40;;;;;;;17.00;100.00;97534.03;5052071;28;20212;-83
2023/07/29 04:44:27;;;;;;;4.40;3.60;;;;;;;16.98;100.00;97540.50;5052032;28;20219;-83
2023/07/29 04:46:53;;;;;;;4.77;3.53;;;;;;;16.97;100.00;97547.72;5051906;28;20591;-82
2023/07/29 04:49:21;;;;;;;4.93;3.63;;;;;;;17.03;100.00;97555.06;5050981;28;20218;-82
2023/07/29 04:51:48;;;;;;;5.07;3.63;;;;;;;17.08;100.00;97557.25;5051619;28;20208;-82
2023/07/29 04:54:14;;;;;;;5.40;3.70;;;;;;;17.10;100.00;97558.78;5051547;28;20843;-83
2023/07/29 04:56:40;;;;;;;4.70;3.60;;;;;;;17.11;100.00;97560.44;5051953;28;20215;-82
2023/07/29 04:59:08;;;;;;;5.33;3.97;;;;;;;17.15;100.00;97566.31;5051204;28;20227;-82
2023/07/29 05:01:34;;;;;;;7.20;4.10;;;;;;;17.16;100.00;97552.78;5051459;28;20608;-83
2023/07/29 05:04:01;;;;;;;6.10;3.90;;;;;;;17.17;100.00;97541.09;5051538;28;20231;-82
2023/07/29 05:06:29;;;;;;;4.83;3.87;;;;;;;17.16;100.00;97536.78;5051202;28;20216;-83
2023/07/29 05:08:58;;;;;;;5.33;3.67;;;;;;;17.19;100.00;97536.44;5051545;28;20211;-83
2023/07/29 05:11:25;;;;;;;3.73;3.37;;;;;;;17.17;100.00;97535.78;5050822;28;20208;-83
2023/07/29 05:13:52;;;;;;;4.27;3.87;;;;;;;17.18;100.00;97518.75;5065811;22;20309;-86
2023/07/29 05:16:18;;;;;;;5.43;4.03;;;;;;;17.20;100.00;97522.06;5051738;28;20220;-85
2023/07/29 05:18:45;;;;;;;7.37;4.30;;;;;;;17.23;100.00;97500.41;5051633;28;20258;-86
2023/07/29 05:21:14;;;;;;;6.13;4.33;;;;;;;17.27;100.00;97499.09;5051070;28;20210;-85
2023/07/29 05:23:42;;;;;;;5.60;4.07;;;;;;;17.32;100.00;97502.09;5051538;28;20330;-86
2023/07/29 05:26:08;;;;;;;4.20;3.80;;;;;;;17.40;100.00;97510.19;5051654;28;20211;-86
2023/07/29 05:28:34;;;;;;;5.50;4.67;;;;;;;17.46;100.00;97506.00;5051646;28;20212;-87
2023/07/29 05:31:01;;;;;;;5.20;4.70;;;;;;;17.51;100.00;97503.69;5050649;28;20654;-85
2023/07/29 05:33:28;;;;;;;4.87;4.20;;;;;;;17.53;100.00;97512.38;5062074;28;20239;-84
2023/07/29 05:35:55;;;;;;;6.13;4.37;;;;;;;17.55;100.00;97521.88;5063956;28;20222;-84
2023/07/29 05:38:21;;;;;;;5.23;4.20;;;;;;;17.56;100.00;97518.22;5066263;28;20235;-83
2023/07/29 05:40:50;;;;;;;5.33;4.00;;;;;;;17.56;100.00;97518.22;5053682;28;20212;-86
2023/07/29 05:43:17;;;;;;;5.60;4.20;;;;;;;17.54;100.00;97520.22;5051459;28;20231;-86
2023/07/29 05:45:43;;;;;;;4.83;3.93;;;;;;;17.60;100.00;97524.91;5051539;28;20214;-85
2023/07/29 05:48:10;;;;;;;5.97;4.10;;;;;;;17.62;100.00;97530.09;5051376;28;20218;-88
2023/07/29 05:50:36;;;;;;;4.33;3.83;;;;;;;17.62;100.00;97528.25;5050923;28;20501;-85
2023/07/29 05:53:03;;;;;;;6.43;4.03;;;;;;;17.60;100.00;97522.25;5051264;28;20228;-87
2023/07/29 05:55:29;;;;;;;4.47;4.07;;;;;;;17.70;100.00;97516.75;5051218;28;20211;-88
2023/07/29 05:57:57;;;;;;;5.23;4.13;;;;;;;17.79;100.00;97519.25;5051181;28;20235;-87
2023/07/29 06:00:24;;;;;;;4.00;3.60;;;;;;;17.88;100.00;97518.28;5050634;28;20219;-87
2023/07/29 06:02:50;;;;;;;5.77;3.97;;;;;;;18.00;100.00;97508.94;5051445;28;20240;-85
2023/07/29 06:05:17;;;;;;;3.93;3.53;;;;;;;18.17;100.00;97505.22;5051306;28;20215;-87
2023/07/29 06:07:44;;;;;;;5.47;3.27;;;;;;;18.31;100.00;97501.94;5051180;28;20222;-87
2023/07/29 06:10:12;;;;;;;4.10;3.37;;;;;;;18.36;100.00;97504.91;5050477;28;20223;-86
2023/07/29 06:12:39;;;;;;;6.20;3.70;;;;;;;18.49;100.00;97502.56;5052373;28;20216;-86
2023/07/29 06:15:08;;;;;;;5.60;3.80;;;;;;;18.69;100.00;97509.22;5055057;28;20216;-86
2023/07/29 06:17:34;;;;;;;6.13;3.20;;;;;;;19.07;100.00;97508.41;5055252;28;20215;-87
2023/07/29 06:20:01;;;;;;;3.33;2.93;;;;;;;19.27;100.00;97515.03;5054570;28;20234;-86
2023/07/29 06:22:27;;;;;;;3.47;2.77;;;;;;;19.37;100.00;97521.03;5055143;28;20208;-88
2023/07/29 06:24:54;;;;;;;2.57;2.33;;;;;;;19.29;100.00;97526.44;5054913;28;20208;-86
2023/07/29 06:27:20;;;;;;;3.00;2.70;;;;;;;19.21;100.00;97547.06;5054865;28;20212;-86
2023/07/29 06:29:49;;;;;;;3.70;2.77;;;;;;;19.11;100.00;97551.75;5054081;28;20199;-87
2023/07/29 06:32:17;;;;;;;3.73;2.60;;;;;;;19.10;100.00;97550.09;5054741;28;20215;-86
2023/07/29 06:34:44;;;;;;;3.43;2.80;;;;;;;18.98;100.00;97546.97;5054802;28;20228;-86
2023/07/29 06:37:10;;;;;;;3.53;2.97;;;;;;;18.87;100.00;97555.34;5054612;28;20216;-86
2023/07/29 06:39:37;;;;;;;3.87;2.90;;;;;;;18.85;100.00;97561.88;5053863;28;20234;-88
2023/07/29 06:42:04;;;;;;;4.67;3.13;;;;;;;18.82;100.00;97557.69;5054648;28;20582;-87
2023/07/29 06:44:30;;;;;;;6.73;3.70;;;;;;;18.76;100.00;97561.06;5054648;28;20234;-86
2023/07/29 06:46:58;;;;;;;4.17;2.90;;;;;;;18.73;100.00;97561.41;5054547;28;20215;-78
2023/07/29 06:49:26;;;;;;;4.83;3.00;;;;;;;18.72;100.00;97561.56;5053673;28;20229;-79
2023/07/29 06:51:54;;;;;;;4.10;3.70;;;;;;;18.71;100.00;97566.09;5053811;28;20208;-77
2023/07/29 06:54:25;;;;;;;3.47;3.00;;;;;;;18.71;100.00;97560.72;5053616;28;20224;-75
2023/07/29 06:56:51;;;;;;;3.23;2.93;;;;;;;18.71;100.00;97565.25;5054110;28;20691;-75
2023/07/29 06:59:18;;;;;;;4.30;3.07;;;;;;;18.68;100.00;97573.63;5053460;28;20305;-74
2023/07/29 07:01:45;;;;;;;4.37;3.13;;;;;;;18.66;100.00;97579.13;5054043;28;20307;-78
2023/07/29 07:04:11;;;;;;;3.80;3.37;;;;;;;18.66;100.00;97576.44;5054089;28;20315;-76
2023/07/29 07:06:39;;;;;;;3.90;3.50;;;;;;;18.68;100.00;97571.78;5054152;28;20594;-77
2023/07/29 07:09:05;;;;;;;4.27;3.30;;;;;;;18.71;100.00;97587.50;5053726;28;20203;-76
2023/07/29 07:11:32;;;;;;;5.13;3.30;;;;;;;18.71;100.00;97592.03;5053543;28;20212;-77
2023/07/29 07:13:58;;;;;;;4.20;3.80;;;;;;;18.69;100.00;97589.50;5053734;28;20262;-76
2023/07/29 07:16:25;;;;;;;4.40;3.30;;;;;;;18.68;100.00;97592.34;5054029;28;20238;-76
2023/07/29 07:18:52;;;;;;;3.57;3.10;;;;;;;18.69;100.00;97594.88;5053644;28;20232;-76
2023/07/29 07:21:18;;;;;;;3.60;3.07;;;;;;;18.70;100.00;97596.53;5053042;28;20667;-77
2023/07/29 07:23:46;;;;;;;3.63;2.90;;;;;;;18.63;100.00;97603.56;5052244;28;20232;-76
2023/07/29 07:26:12;;;;;;;6.50;3.33;;;;;;;18.60;100.00;97601.22;5053769;28;20211;-79
2023/07/29 07:28:39;;;;;;;4.87;3.50;;;;;;;18.58;100.00;97597.03;5053547;28;20208;-78
2023/07/29 07:31:05;;;;;;;2.97;2.77;;;;;;;18.54;100.00;97596.53;5052889;28;20211;-80
2023/07/29 07:33:32;;;;;;;4.25;3.08;;;;;;;18.54;100.00;97593.88;5053001;28;21009;-80
2023/07/29 07:35:58;;;;;;;4.03;3.00;;;;;;;18.57;100.00;97600.72;5051723;28;20212;-79
2023/07/29 07:38:25;;;;;;;3.77;2.80;;;;;;;18.64;100.00;97596.38;5050690;28;20235;-79
2023/07/29 07:40:57;;;;;;;3.40;3.00;;;;;;;18.67;100.00;97607.59;5051987;28;20212;-79
2023/07/29 07:43:23;;;;;;;3.00;2.70;;;;;;;18.68;100.00;97603.91;5052508;28;20238;-80
2023/07/29 07:45:50;;;;;;;3.20;2.77;;;;;;;18.69;100.00;97600.22;5051658;28;20212;-79
2023/07/29 07:48:17;;;;;;;3.30;2.70;;;;;;;18.71;100.00;97603.56;5052749;28;20216;-79
2023/07/29 07:50:44;;;;;;;4.40;3.07;;;;;;;18.79;100.00;97600.91;5051637;28;20208;-81
2023/07/29 07:53:10;;;;;;;2.80;2.60;;;;;;;18.89;100.00;97596.16;5051054;28;20278;-80
2023/07/29 07:55:37;;;;;;;3.83;2.43;;;;;;;18.98;100.00;97607.72;5051973;28;20215;-79
2023/07/29 07:58:05;;;;;;;2.73;2.43;;;;;;;19.09;100.00;97602.81;5052482;28;20212;-79
2023/07/29 08:00:31;;;;;;;2.70;2.20;;;;;;;19.19;100.00;97598.09;5050515;28;20232;-79
2023/07/29 08:02:58;;;;;;;3.50;2.37;;;;;;;19.29;100.00;97598.78;5051939;28;20710;-87
2023/07/29 08:05:25;;;;;;;3.83;2.20;;;;;;;19.40;100.00;97589.53;5051972;28;20212;-88
2023/07/29 08:07:51;;;;;;;2.37;2.07;;;;;;;19.49;100.00;97594.69;5051300;28;20209;-86
2023/07/29 08:10:18;;;;;;;5.43;2.23;;;;;;;19.61;100.00;97604.00;5051460;28;20309;-86
2023/07/29 08:12:44;;;;;;;2.10;1.90;;;;;;;19.62;100.00;97604.84;5051874;28;20232;-86
2023/07/29 08:15:12;;;;;;;2.87;2.20;;;;;;;19.61;100.00;97613.88;5051394;28;20211;-85
2023/07/29 08:17:39;;;;;;;2.23;2.03;;;;;;;19.65;100.00;97621.44;5051246;28;20212;-79
2023/07/29 08:20:06;;;;;;;2.03;1.63;;;;;;;19.74;100.00;97636.44;5051890;28;20232;-79
2023/07/29 08:22:33;;;;;;;2.07;1.87;;;;;;;19.89;100.00;97634.72;5051727;28;20215;-79
2023/07/29 08:24:59;;;;;;;2.30;1.80;;;;;;;20.05;100.00;97650.72;5052454;28;20751;-79
2023/07/29 08:27:26;;;;;;;2.10;1.37;;;;;;;20.13;100.00;97650.72;5052622;28;20213;-80
2023/07/29 08:29:54;;;;;;;1.53;1.23;;;;;;;20.16;100.00;97652.19;5051746;28;20219;-78
2023/07/29 08:32:22;;;;;;;2.73;1.50;;;;;;;20.19;100.00;97655.34;5052367;28;20212;-78
2023/07/29 08:34:48;;;;;;;1.50;1.40;;;;;;;20.15;100.00;97667.47;5051860;28;20225;-79
2023/07/29 08:37:15;;;;;;;1.80;1.13;;;;;;;20.14;100.00;97668.47;5052518;28;20204;-77
2023/07/29 08:39:41;;;;;;;1.40;1.30;;;;;;;20.20;100.00;97654.34;5051701;28;20231;-77
2023/07/29 08:42:11;;;;;;;2.47;1.33;;;;;;;20.20;100.00;97667.78;5052170;28;20683;-77
2023/07/29 08:44:42;;;;;;;1.30;1.20;;;;;;;20.36;100.00;97664.97;5052253;28;20228;-78
2023/07/29 08:47:08;;;;;;;1.37;1.10;;;;;;;20.58;100.00;97669.53;5051996;28;20730;-79
2023/07/29 08:49:37;;;;;;;1.77;1.30;;;;;;;20.85;100.00;97660.91;5051649;28;20208;-81
2023/07/29 08:52:05;;;;;;;1.80;1.20;;;;;;;21.16;100.00;97669.69;5052297;28;20215;-81
2023/07/29 08:54:32;;;;;;;1.83;1.40;;;;;;;21.54;100.00;97665.97;5052105;28;20228;-82
2023/07/29 08:57:00;;;;;;;1.10;1.00;;;;;;;21.93;100.00;97669.22;5052012;28;20570;-80
2023/07/29 08:59:27;;;;;;;3.47;1.30;;;;;;;22.25;100.00;97674.16;5051242;28;20232;-76
2023/07/29 09:01:55;;;;;;;1.40;1.30;;;;;;;22.49;100.00;97671.13;5051727;28;20204;-77
2023/07/29 09:04:23;;;;;;;1.33;1.00;;;;;;;22.57;100.00;97680.97;5052003;28;20290;-77
2023/07/29 09:06:51;;;;;;;1.93;1.10;;;;;;;22.61;100.00;97680.38;5051801;28;20723;-75
2023/07/29 09:09:18;;;;;;;1.70;1.00;;;;;;;22.73;100.00;97680.72;5051115;28;20211;-77
2023/07/29 09:11:45;;;;;;;1.63;1.03;;;;;;;22.75;100.00;97676.78;5051662;28;20709;-79
2023/07/29 09:14:11;;;;;;;1.73;1.10;;;;;;;22.77;100.00;97673.91;5051392;28;20242;-78
2023/07/29 09:16:39;;;;;;;1.43;1.00;;;;;;;22.90;100.00;97665.94;5051521;28;20647;-75
2023/07/29 09:19:05;;;;;;;1.43;1.30;;;;;;;23.05;100.00;97661.31;5051392;28;20232;-80
2023/07/29 09:21:33;;;;;;;2.10;1.10;;;;;;;23.11;100.00;97650.56;5051435;28;20215;-75
2023/07/29 09:24:04;;;;;;;1.77;1.20;;;;;;;23.25;100.00;97668.56;5051614;28;20239;-75
2023/07/29 09:26:31;;;;;;;2.00;1.30;;;;;;;23.46;100.00;97655.00;5052063;28;20210;-75
2023/07/29 09:28:59;;;;;;;1.00;0.83;;;;;;;23.63;100.00;97661.75;5051288;28;20219;-76
2023/07/29 09:31:26;;;;;;;1.20;1.07;;;;;;;23.92;100.00;97656.16;5050915;28;20214;-75
2023/07/29 09:33:57;;;;;;;1.83;1.23;;;;;;;24.13;100.00;97658.72;5051441;28;20223;-76
2023/07/29 09:36:24;;;;;;;1.33;1.17;;;;;;;24.12;100.00;97656.22;5051556;28;20208;-76
2023/07/29 09:38:53;;;;;;;2.13;1.00;;;;;;;24.29;100.00;97647.56;5051127;28;20444;-76
2023/07/29 09:41:23;;;;;;;1.30;1.20;;;;;;;24.39;100.00;97642.59;5047339;28;20211;-75
2023/07/29 09:43:57;;;;;;;1.10;1.00;;;;;;;24.27;100.00;97627.19;5050430;28;20718;-75
2023/07/29 09:46:24;;;;;;;1.00;1.00;;;;;;;24.15;100.00;97645.81;5050295;28;20697;-75
2023/07/29 09:48:55;;;;;;;1.27;1.10;;;;;;;23.72;100.00;97641.66;5049253;28;20687;-74
2023/07/29 09:51:22;;;;;;;1.10;1.00;;;;;;;23.54;100.00;97635.13;5048776;28;20261;-76
2023/07/29 09:53:50;;;;;;;1.27;1.17;;;;;;;23.28;100.00;97630.41;5048724;28;20282;-75
2023/07/29 09:56:17;;;;;;;1.13;0.97;;;;;;;23.11;100.00;97639.78;5046885;28;20208;-76
2023/07/29 09:58:46;;;;;;;1.40;1.13;;;;;;;23.16;100.00;97626.59;5047749;28;20212;-76
2023/07/29 10:01:13;;;;;;;1.30;1.20;;;;;;;23.12;100.00;97609.13;5046479;28;20824;-75
2023/07/29 10:03:40;;;;;;;2.37;1.43;;;;;;;23.19;100.00;97619.97;5049382;28;20301;-76
2023/07/29 10:06:08;;;;;;;1.83;1.20;;;;;;;23.22;99.36;97608.81;5050237;28;20302;-75
2023/07/29 10:08:38;;;;;;;1.43;1.33;;;;;;;23.35;97.18;97604.31;5047698;28;20212;-75
2023/07/29 10:11:06;;;;;;;1.63;1.53;;;;;;;23.31;97.52;97624.63;5045885;28;20606;-78
2023/07/29 10:13:33;;;;;;;2.03;1.40;;;;;;;23.15;99.82;97657.25;5048377;28;20238;-85
2023/07/29 10:16:03;;;;;;;1.43;1.00;;;;;;;22.95;100.00;97667.03;5050173;28;20620;-79
2023/07/29 10:18:30;;;;;;;1.60;1.40;;;;;;;22.89;100.00;97680.44;5051278;28;20212;-82
2023/07/29 10:20:59;;;;;;;1.73;1.20;;;;;;;23.15;100.00;97662.63;5050031;28;20741;-82
2023/07/29 10:23:27;;;;;;;0.93;0.90;;;;;;;23.05;100.00;97651.34;5050957;28;20733;-80
2023/07/29 10:26:02;;;;;;;1.10;1.00;;;;;;;22.80;100.00;97668.16;5051079;28;20219;-82
2023/07/29 10:28:31;;;;;;;1.50;0.87;;;;;;;22.50;100.00;97678.19;5051424;28;20234;-83
2023/07/29 10:30:58;;;;;;;2.43;1.00;;;;;;;22.43;100.00;97671.91;5049903;28;20307;-82
2023/07/29 10:33:26;;;;;;;1.20;1.00;;;;;;;22.26;100.00;97669.63;5050515;28;20232;-78
2023/07/29 10:35:53;;;;;;;0.90;0.90;;;;;;;22.27;100.00;97661.34;5049722;28;20208;-79
2023/07/29 10:38:22;;;;;;;1.70;1.40;;;;;;;22.29;100.00;97670.06;5048494;28;20215;-82
2023/07/29 10:40:51;;;;;;;1.47;1.37;;;;;;;22.45;100.00;97679.78;5049149;28;20718;-79
2023/07/29 10:43:24;;;;;;;0.90;0.90;;;;;;;22.45;100.00;97661.78;5049960;28;20716;-77
2023/07/29 10:45:51;;;;;;;1.30;1.20;;;;;;;22.57;100.00;97664.81;5048670;28;20231;-80
2023/07/29 10:48:43;;;;;;;1.73;1.20;;;;;;;22.58;100.00;97659.22;5051024;28;20227;-76
2023/07/29 10:51:29;;;;;;;1.60;1.40;;;;;;;22.83;100.00;97679.38;5049940;28;20215;-78
2023/07/29 10:53:56;;;;;;;2.80;1.20;;;;;;;23.06;100.00;97673.75;5050697;28;20232;-78
2023/07/29 10:56:29;;;;;;;1.63;1.00;;;;;;;23.24;100.00;97661.50;5050592;28;20207;-80
2023/07/29 10:59:00;;;;;;;1.60;1.40;;;;;;;23.41;100.00;97673.66;5052216;28;20204;-79
2023/07/29 11:01:31;;;;;;;1.77;1.10;;;;;;;23.61;93.49;97642.25;5053801;28;20584;-78
2023/07/29 11:04:23;;;;;;;1.37;1.10;;;;;;;23.69;89.95;97625.03;5054094;28;20224;-80
2023/07/29 11:07:22;;;;;;;0.90;0.90;;;;;;;23.72;89.60;97630.88;5054057;28;20207;-81
2023/07/29 11:09:55;;;;;;;1.30;1.00;;;;;;;23.79;87.14;97626.38;5053568;28;20204;-79
2023/07/29 11:12:36;;;;;;;1.13;1.00;;;;;;;23.61;85.69;97628.75;5054067;28;20208;-79
2023/07/29 11:15:05;;;;;;;0.90;0.90;;;;;;;23.76;88.26;97651.03;5068007;22;20239;-81
2023/07/29 11:17:34;;;;;;;1.63;1.17;;;;;;;23.94;92.44;97656.75;5051429;28;20204;-80
2023/07/29 11:20:01;;;;;;;1.23;1.13;;;;;;;24.13;89.67;97647.91;5052168;28;20586;-82
2023/07/29 11:22:29;;;;;;;1.20;1.10;;;;;;;24.33;88.24;97638.00;5050857;28;20204;-83
2023/07/29 11:24:56;;;;;;;1.03;1.00;;;;;;;24.46;86.85;97637.22;5049647;28;20235;-81
2023/07/29 11:27:23;;;;;;;0.90;0.90;;;;;;;24.46;83.41;97624.53;5050656;28;20216;-84
2023/07/29 11:29:49;;;;;;;1.33;0.90;;;;;;;24.36;81.93;97618.69;5050711;28;20220;-82